sensor_id;sensor_type;location;lat;lon;timestamp;P1;durP1;ratioP1;P2;durP2;ratioP2
69878;SDS011;57161;43.136;24.706;2022-08-19T00:01:32;7.03;;;4.65;;
69878;SDS011;57161;43.136;24.706;2022-08-19T00:03:59;8.45;;;5.15;;
69878;SDS011;57161;43.136;24.706;2022-08-19T00:06:27;7.28;;;4.90;;
69878;SDS011;57161;43.136;24.706;2022-08-19T00:08:54;6.32;;;5.18;;
69878;SDS011;57161;43.136;24.706;2022-08-19T00:11:20;6.47;;;4.97;;
69878;SDS011;57161;43.136;24.706;2022-08-19T00:13:46;6.78;;;4.70;;
69878;SDS011;57161;43.136;24.706;2022-08-19T00:16:14;7.63;;;4.80;;
69878;SDS011;57161;43.136;24.706;2022-08-19T00:18:40;9.05;;;4.78;;
69878;SDS011;57161;43.136;24.706;2022-08-19T00:21:05;7.97;;;4.88;;
69878;SDS011;57161;43.136;24.706;2022-08-19T00:23:33;8.30;;;5.00;;
69878;SDS011;57161;43.136;24.706;2022-08-19T00:26:01;6.70;;;4.75;;
69878;SDS011;57161;43.136;24.706;2022-08-19T00:28:28;9.00;;;5.00;;
69878;SDS011;57161;43.136;24.706;2022-08-19T00:30:53;6.47;;;5.03;;
69878;SDS011;57161;43.136;24.706;2022-08-19T00:33:20;6.47;;;4.50;;
69878;SDS011;57161;43.136;24.706;2022-08-19T00:35:46;7.07;;;5.25;;
69878;SDS011;57161;43.136;24.706;2022-08-19T00:38:11;7.05;;;5.78;;
69878;SDS011;57161;43.136;24.706;2022-08-19T00:40:37;6.38;;;5.20;;
69878;SDS011;57161;43.136;24.706;2022-08-19T00:43:07;7.85;;;4.88;;
69878;SDS011;57161;43.136;24.706;2022-08-19T00:45:34;6.93;;;4.97;;
69878;SDS011;57161;43.136;24.706;2022-08-19T00:48:00;5.72;;;5.10;;
69878;SDS011;57161;43.136;24.706;2022-08-19T00:50:29;9.45;;;5.20;;
69878;SDS011;57161;43.136;24.706;2022-08-19T00:52:55;5.68;;;5.07;;
69878;SDS011;57161;43.136;24.706;2022-08-19T00:55:22;5.40;;;4.88;;
69878;SDS011;57161;43.136;24.706;2022-08-19T00:57:52;6.28;;;5.07;;
69878;SDS011;57161;43.136;24.706;2022-08-19T01:00:21;9.13;;;5.30;;
69878;SDS011;57161;43.136;24.706;2022-08-19T01:02:48;8.00;;;5.40;;
69878;SDS011;57161;43.136;24.706;2022-08-19T01:05:16;6.78;;;5.07;;
69878;SDS011;57161;43.136;24.706;2022-08-19T01:07:46;6.00;;;4.93;;
69878;SDS011;57161;43.136;24.706;2022-08-19T01:10:17;6.97;;;4.82;;
69878;SDS011;57161;43.136;24.706;2022-08-19T01:12:46;6.63;;;5.28;;
69878;SDS011;57161;43.136;24.706;2022-08-19T01:15:14;8.25;;;5.70;;
69878;SDS011;57161;43.136;24.706;2022-08-19T01:17:43;7.22;;;5.50;;
69878;SDS011;57161;43.136;24.706;2022-08-19T01:20:21;6.25;;;5.28;;
69878;SDS011;57161;43.136;24.706;2022-08-19T01:22:49;7.70;;;5.60;;
69878;SDS011;57161;43.136;24.706;2022-08-19T01:25:22;6.25;;;5.18;;
69878;SDS011;57161;43.136;24.706;2022-08-19T01:27:54;6.20;;;5.60;;
69878;SDS011;57161;43.136;24.706;2022-08-19T01:30:29;7.97;;;5.15;;
69878;SDS011;57161;43.136;24.706;2022-08-19T01:32:57;9.05;;;5.78;;
69878;SDS011;57161;43.136;24.706;2022-08-19T01:35:25;8.38;;;5.18;;
69878;SDS011;57161;43.136;24.706;2022-08-19T01:37:55;7.95;;;5.78;;
69878;SDS011;57161;43.136;24.706;2022-08-19T01:40:26;9.57;;;5.43;;
69878;SDS011;57161;43.136;24.706;2022-08-19T01:42:54;9.85;;;5.63;;
69878;SDS011;57161;43.136;24.706;2022-08-19T01:45:21;7.55;;;5.35;;
69878;SDS011;57161;43.136;24.706;2022-08-19T01:47:48;7.22;;;5.97;;
69878;SDS011;57161;43.136;24.706;2022-08-19T01:50:15;7.72;;;5.63;;
69878;SDS011;57161;43.136;24.706;2022-08-19T01:52:42;8.90;;;5.70;;
69878;SDS011;57161;43.136;24.706;2022-08-19T01:55:11;7.88;;;5.60;;
69878;SDS011;57161;43.136;24.706;2022-08-19T01:57:39;7.23;;;5.33;;
69878;SDS011;57161;43.136;24.706;2022-08-19T02:00:09;7.40;;;5.65;;
69878;SDS011;57161;43.136;24.706;2022-08-19T02:02:37;8.80;;;5.95;;
69878;SDS011;57161;43.136;24.706;2022-08-19T02:05:03;7.15;;;5.97;;
69878;SDS011;57161;43.136;24.706;2022-08-19T02:07:30;8.00;;;5.80;;
69878;SDS011;57161;43.136;24.706;2022-08-19T02:09:55;10.85;;;5.72;;
69878;SDS011;57161;43.136;24.706;2022-08-19T02:12:21;7.32;;;5.45;;
69878;SDS011;57161;43.136;24.706;2022-08-19T02:14:46;7.65;;;5.70;;
69878;SDS011;57161;43.136;24.706;2022-08-19T02:17:12;8.98;;;5.88;;
69878;SDS011;57161;43.136;24.706;2022-08-19T02:19:38;8.13;;;6.05;;
69878;SDS011;57161;43.136;24.706;2022-08-19T02:22:03;8.20;;;5.88;;
69878;SDS011;57161;43.136;24.706;2022-08-19T02:24:29;9.38;;;5.75;;
69878;SDS011;57161;43.136;24.706;2022-08-19T02:26:55;7.07;;;5.63;;
69878;SDS011;57161;43.136;24.706;2022-08-19T02:29:20;9.60;;;5.50;;
69878;SDS011;57161;43.136;24.706;2022-08-19T02:31:46;8.65;;;6.00;;
69878;SDS011;57161;43.136;24.706;2022-08-19T02:34:11;10.90;;;5.50;;
69878;SDS011;57161;43.136;24.706;2022-08-19T02:36:37;7.88;;;5.97;;
69878;SDS011;57161;43.136;24.706;2022-08-19T02:39:02;8.75;;;6.00;;
69878;SDS011;57161;43.136;24.706;2022-08-19T02:41:29;8.48;;;5.53;;
69878;SDS011;57161;43.136;24.706;2022-08-19T02:43:58;7.70;;;5.97;;
69878;SDS011;57161;43.136;24.706;2022-08-19T02:46:27;7.22;;;5.40;;
69878;SDS011;57161;43.136;24.706;2022-08-19T02:48:55;8.57;;;6.13;;
69878;SDS011;57161;43.136;24.706;2022-08-19T02:51:26;10.63;;;6.25;;
69878;SDS011;57161;43.136;24.706;2022-08-19T02:53:54;8.18;;;6.00;;
69878;SDS011;57161;43.136;24.706;2022-08-19T02:56:20;9.45;;;6.15;;
69878;SDS011;57161;43.136;24.706;2022-08-19T02:58:47;10.05;;;6.18;;
69878;SDS011;57161;43.136;24.706;2022-08-19T03:01:23;8.68;;;6.47;;
69878;SDS011;57161;43.136;24.706;2022-08-19T03:03:52;8.90;;;6.10;;
69878;SDS011;57161;43.136;24.706;2022-08-19T03:06:19;6.72;;;6.00;;
69878;SDS011;57161;43.136;24.706;2022-08-19T03:08:45;9.50;;;6.15;;
69878;SDS011;57161;43.136;24.706;2022-08-19T03:11:12;7.60;;;6.00;;
69878;SDS011;57161;43.136;24.706;2022-08-19T03:13:40;8.95;;;6.18;;
69878;SDS011;57161;43.136;24.706;2022-08-19T03:16:05;9.00;;;6.10;;
69878;SDS011;57161;43.136;24.706;2022-08-19T03:18:31;8.60;;;6.10;;
69878;SDS011;57161;43.136;24.706;2022-08-19T03:20:57;7.97;;;5.88;;
69878;SDS011;57161;43.136;24.706;2022-08-19T03:23:23;10.60;;;6.03;;
69878;SDS011;57161;43.136;24.706;2022-08-19T03:25:51;6.60;;;5.90;;
69878;SDS011;57161;43.136;24.706;2022-08-19T03:28:18;8.70;;;5.80;;
69878;SDS011;57161;43.136;24.706;2022-08-19T03:30:58;7.43;;;6.68;;
69878;SDS011;57161;43.136;24.706;2022-08-19T03:33:32;11.90;;;6.47;;
69878;SDS011;57161;43.136;24.706;2022-08-19T03:36:02;10.15;;;5.70;;
69878;SDS011;57161;43.136;24.706;2022-08-19T03:38:34;9.63;;;6.10;;
69878;SDS011;57161;43.136;24.706;2022-08-19T03:41:02;10.35;;;6.18;;
69878;SDS011;57161;43.136;24.706;2022-08-19T03:43:28;7.30;;;5.65;;
69878;SDS011;57161;43.136;24.706;2022-08-19T03:46:13;10.98;;;5.80;;
69878;SDS011;57161;43.136;24.706;2022-08-19T03:48:41;8.18;;;6.28;;
69878;SDS011;57161;43.136;24.706;2022-08-19T03:51:15;9.25;;;6.15;;
69878;SDS011;57161;43.136;24.706;2022-08-19T03:53:45;9.25;;;6.60;;
69878;SDS011;57161;43.136;24.706;2022-08-19T03:56:11;6.70;;;5.80;;
69878;SDS011;57161;43.136;24.706;2022-08-19T03:58:38;8.00;;;5.95;;
69878;SDS011;57161;43.136;24.706;2022-08-19T04:01:08;7.95;;;5.90;;
69878;SDS011;57161;43.136;24.706;2022-08-19T04:03:38;7.05;;;6.35;;
69878;SDS011;57161;43.136;24.706;2022-08-19T04:08:38;9.88;;;6.43;;
69878;SDS011;57161;43.136;24.706;2022-08-19T04:11:08;7.47;;;6.78;;
69878;SDS011;57161;43.136;24.706;2022-08-19T04:13:35;13.77;;;7.00;;
69878;SDS011;57161;43.136;24.706;2022-08-19T04:16:00;9.30;;;7.05;;
69878;SDS011;57161;43.136;24.706;2022-08-19T04:18:26;11.18;;;6.97;;
69878;SDS011;57161;43.136;24.706;2022-08-19T04:20:51;9.75;;;6.82;;
69878;SDS011;57161;43.136;24.706;2022-08-19T04:23:17;10.27;;;6.28;;
69878;SDS011;57161;43.136;24.706;2022-08-19T04:25:43;10.40;;;6.47;;
69878;SDS011;57161;43.136;24.706;2022-08-19T04:28:10;9.07;;;6.57;;
69878;SDS011;57161;43.136;24.706;2022-08-19T04:30:40;8.27;;;6.00;;
69878;SDS011;57161;43.136;24.706;2022-08-19T04:33:09;8.82;;;6.38;;
69878;SDS011;57161;43.136;24.706;2022-08-19T04:35:37;8.98;;;6.25;;
69878;SDS011;57161;43.136;24.706;2022-08-19T04:38:04;9.18;;;5.88;;
69878;SDS011;57161;43.136;24.706;2022-08-19T04:40:30;9.77;;;6.40;;
69878;SDS011;57161;43.136;24.706;2022-08-19T04:43:14;8.88;;;6.20;;
69878;SDS011;57161;43.136;24.706;2022-08-19T04:45:40;10.23;;;6.22;;
69878;SDS011;57161;43.136;24.706;2022-08-19T04:48:08;13.98;;;7.00;;
69878;SDS011;57161;43.136;24.706;2022-08-19T04:50:33;9.32;;;6.30;;
69878;SDS011;57161;43.136;24.706;2022-08-19T04:52:59;10.50;;;6.28;;
69878;SDS011;57161;43.136;24.706;2022-08-19T04:55:24;8.32;;;6.25;;
69878;SDS011;57161;43.136;24.706;2022-08-19T04:57:53;6.90;;;5.95;;
69878;SDS011;57161;43.136;24.706;2022-08-19T05:00:19;9.32;;;5.82;;
69878;SDS011;57161;43.136;24.706;2022-08-19T05:02:45;7.88;;;5.72;;
69878;SDS011;57161;43.136;24.706;2022-08-19T05:05:10;8.07;;;5.80;;
69878;SDS011;57161;43.136;24.706;2022-08-19T05:07:37;8.63;;;6.30;;
69878;SDS011;57161;43.136;24.706;2022-08-19T05:10:04;7.57;;;5.75;;
69878;SDS011;57161;43.136;24.706;2022-08-19T05:12:30;6.97;;;5.88;;
69878;SDS011;57161;43.136;24.706;2022-08-19T05:14:58;9.75;;;6.57;;
69878;SDS011;57161;43.136;24.706;2022-08-19T05:17:25;8.18;;;6.25;;
69878;SDS011;57161;43.136;24.706;2022-08-19T05:19:51;10.35;;;6.22;;
69878;SDS011;57161;43.136;24.706;2022-08-19T05:22:35;10.18;;;6.25;;
69878;SDS011;57161;43.136;24.706;2022-08-19T05:25:06;12.20;;;5.95;;
69878;SDS011;57161;43.136;24.706;2022-08-19T05:27:34;8.75;;;6.38;;
69878;SDS011;57161;43.136;24.706;2022-08-19T05:29:59;7.88;;;6.25;;
69878;SDS011;57161;43.136;24.706;2022-08-19T05:32:26;11.07;;;5.80;;
69878;SDS011;57161;43.136;24.706;2022-08-19T05:34:52;8.82;;;6.22;;
69878;SDS011;57161;43.136;24.706;2022-08-19T05:37:18;7.57;;;5.93;;
69878;SDS011;57161;43.136;24.706;2022-08-19T06:34:09;11.95;;;6.35;;
69878;SDS011;57161;43.136;24.706;2022-08-19T06:36:41;8.68;;;6.20;;
69878;SDS011;57161;43.136;24.706;2022-08-19T06:39:10;13.73;;;6.88;;
69878;SDS011;57161;43.136;24.706;2022-08-19T06:41:39;33.13;;;7.15;;
69878;SDS011;57161;43.136;24.706;2022-08-19T06:44:08;12.25;;;6.43;;
69878;SDS011;57161;43.136;24.706;2022-08-19T06:46:35;10.25;;;6.28;;
69878;SDS011;57161;43.136;24.706;2022-08-19T06:49:01;10.48;;;7.43;;
69878;SDS011;57161;43.136;24.706;2022-08-19T06:51:27;8.05;;;6.65;;
69878;SDS011;57161;43.136;24.706;2022-08-19T06:53:54;13.25;;;6.88;;
69878;SDS011;57161;43.136;24.706;2022-08-19T06:56:21;16.80;;;7.43;;
69878;SDS011;57161;43.136;24.706;2022-08-19T06:58:50;11.40;;;7.05;;
69878;SDS011;57161;43.136;24.706;2022-08-19T07:01:17;9.27;;;7.07;;
69878;SDS011;57161;43.136;24.706;2022-08-19T07:03:44;10.20;;;7.50;;
69878;SDS011;57161;43.136;24.706;2022-08-19T07:06:12;10.68;;;7.00;;
69878;SDS011;57161;43.136;24.706;2022-08-19T07:08:42;15.23;;;7.20;;
69878;SDS011;57161;43.136;24.706;2022-08-19T07:11:09;9.48;;;7.22;;
69878;SDS011;57161;43.136;24.706;2022-08-19T07:13:38;13.10;;;7.03;;
69878;SDS011;57161;43.136;24.706;2022-08-19T07:16:04;10.50;;;7.07;;
69878;SDS011;57161;43.136;24.706;2022-08-19T07:18:31;8.38;;;7.10;;
69878;SDS011;57161;43.136;24.706;2022-08-19T07:21:07;14.90;;;7.63;;
69878;SDS011;57161;43.136;24.706;2022-08-19T07:23:37;24.70;;;7.93;;
69878;SDS011;57161;43.136;24.706;2022-08-19T07:26:05;13.30;;;7.00;;
69878;SDS011;57161;43.136;24.706;2022-08-19T07:28:36;13.65;;;7.55;;
69878;SDS011;57161;43.136;24.706;2022-08-19T07:31:04;19.40;;;8.30;;
69878;SDS011;57161;43.136;24.706;2022-08-19T07:33:31;15.45;;;7.57;;
69878;SDS011;57161;43.136;24.706;2022-08-19T07:35:57;11.82;;;7.90;;
69878;SDS011;57161;43.136;24.706;2022-08-19T07:38:23;23.58;;;8.02;;
69878;SDS011;57161;43.136;24.706;2022-08-19T07:40:49;8.43;;;7.53;;
69878;SDS011;57161;43.136;24.706;2022-08-19T07:43:16;10.32;;;7.32;;
69878;SDS011;57161;43.136;24.706;2022-08-19T07:45:45;14.55;;;7.80;;
69878;SDS011;57161;43.136;24.706;2022-08-19T07:48:11;11.15;;;7.47;;
69878;SDS011;57161;43.136;24.706;2022-08-19T07:50:37;15.45;;;7.55;;
69878;SDS011;57161;43.136;24.706;2022-08-19T07:53:03;11.27;;;7.85;;
69878;SDS011;57161;43.136;24.706;2022-08-19T07:55:28;17.88;;;7.93;;
69878;SDS011;57161;43.136;24.706;2022-08-19T07:57:54;10.70;;;8.50;;
69878;SDS011;57161;43.136;24.706;2022-08-19T08:00:20;12.70;;;8.00;;
69878;SDS011;57161;43.136;24.706;2022-08-19T08:02:45;12.13;;;7.50;;
69878;SDS011;57161;43.136;24.706;2022-08-19T08:05:11;12.40;;;7.50;;
69878;SDS011;57161;43.136;24.706;2022-08-19T08:07:55;10.25;;;7.10;;
69878;SDS011;57161;43.136;24.706;2022-08-19T08:10:39;13.30;;;7.05;;
69878;SDS011;57161;43.136;24.706;2022-08-19T08:13:05;10.48;;;6.97;;
69878;SDS011;57161;43.136;24.706;2022-08-19T08:15:30;13.85;;;6.68;;
69878;SDS011;57161;43.136;24.706;2022-08-19T08:17:56;9.30;;;6.15;;
69878;SDS011;57161;43.136;24.706;2022-08-19T08:20:22;8.55;;;6.15;;
69878;SDS011;57161;43.136;24.706;2022-08-19T08:22:49;19.20;;;8.02;;
69878;SDS011;57161;43.136;24.706;2022-08-19T08:25:35;11.45;;;6.45;;
69878;SDS011;57161;43.136;24.706;2022-08-19T08:28:01;9.30;;;5.72;;
69878;SDS011;57161;43.136;24.706;2022-08-19T08:30:28;10.07;;;6.82;;
69878;SDS011;57161;43.136;24.706;2022-08-19T08:32:55;10.23;;;6.75;;
69878;SDS011;57161;43.136;24.706;2022-08-19T08:35:22;9.38;;;6.68;;
69878;SDS011;57161;43.136;24.706;2022-08-19T08:37:49;10.45;;;6.43;;
69878;SDS011;57161;43.136;24.706;2022-08-19T08:40:19;17.17;;;6.40;;
69878;SDS011;57161;43.136;24.706;2022-08-19T08:42:54;9.18;;;6.15;;
69878;SDS011;57161;43.136;24.706;2022-08-19T08:45:27;8.00;;;5.90;;
69878;SDS011;57161;43.136;24.706;2022-08-19T08:47:54;7.55;;;5.93;;
69878;SDS011;57161;43.136;24.706;2022-08-19T08:50:38;10.40;;;6.35;;
69878;SDS011;57161;43.136;24.706;2022-08-19T08:53:07;8.20;;;5.85;;
69878;SDS011;57161;43.136;24.706;2022-08-19T08:55:35;8.45;;;6.43;;
69878;SDS011;57161;43.136;24.706;2022-08-19T08:58:03;8.85;;;6.38;;
69878;SDS011;57161;43.136;24.706;2022-08-19T09:03:16;9.57;;;6.30;;
69878;SDS011;57161;43.136;24.706;2022-08-19T09:05:49;8.90;;;5.57;;
69878;SDS011;57161;43.136;24.706;2022-08-19T09:11:00;8.05;;;5.82;;
69878;SDS011;57161;43.136;24.706;2022-08-19T09:16:27;10.18;;;6.38;;
69878;SDS011;57161;43.136;24.706;2022-08-19T09:18:56;9.70;;;6.72;;
69878;SDS011;57161;43.136;24.706;2022-08-19T09:21:25;8.52;;;6.30;;
69878;SDS011;57161;43.136;24.706;2022-08-19T09:23:52;12.30;;;6.40;;
69878;SDS011;57161;43.136;24.706;2022-08-19T09:26:19;6.78;;;6.05;;
69878;SDS011;57161;43.136;24.706;2022-08-19T09:28:48;6.93;;;6.22;;
69878;SDS011;57161;43.136;24.706;2022-08-19T09:31:16;13.10;;;6.28;;
69878;SDS011;57161;43.136;24.706;2022-08-19T09:33:43;8.85;;;6.43;;
69878;SDS011;57161;43.136;24.706;2022-08-19T09:36:10;10.38;;;6.63;;
69878;SDS011;57161;43.136;24.706;2022-08-19T09:38:39;11.48;;;6.85;;
69878;SDS011;57161;43.136;24.706;2022-08-19T09:41:09;9.55;;;6.50;;
69878;SDS011;57161;43.136;24.706;2022-08-19T09:43:38;10.57;;;6.38;;
69878;SDS011;57161;43.136;24.706;2022-08-19T09:46:05;13.95;;;6.53;;
69878;SDS011;57161;43.136;24.706;2022-08-19T09:48:32;9.27;;;5.72;;
69878;SDS011;57161;43.136;24.706;2022-08-19T09:51:09;8.70;;;5.95;;
69878;SDS011;57161;43.136;24.706;2022-08-19T09:53:36;10.45;;;6.47;;
69878;SDS011;57161;43.136;24.706;2022-08-19T09:56:03;7.10;;;6.25;;
69878;SDS011;57161;43.136;24.706;2022-08-19T09:58:29;10.15;;;6.43;;
69878;SDS011;57161;43.136;24.706;2022-08-19T10:00:56;8.60;;;6.28;;
69878;SDS011;57161;43.136;24.706;2022-08-19T10:03:23;9.55;;;6.20;;
69878;SDS011;57161;43.136;24.706;2022-08-19T10:05:50;10.50;;;6.03;;
69878;SDS011;57161;43.136;24.706;2022-08-19T10:08:17;8.93;;;6.15;;
69878;SDS011;57161;43.136;24.706;2022-08-19T10:10:44;9.43;;;6.28;;
69878;SDS011;57161;43.136;24.706;2022-08-19T10:13:11;10.73;;;6.32;;
69878;SDS011;57161;43.136;24.706;2022-08-19T10:15:37;8.88;;;6.13;;
69878;SDS011;57161;43.136;24.706;2022-08-19T10:18:06;6.70;;;5.43;;
69878;SDS011;57161;43.136;24.706;2022-08-19T10:20:32;7.28;;;5.97;;
69878;SDS011;57161;43.136;24.706;2022-08-19T10:22:57;9.65;;;5.90;;
69878;SDS011;57161;43.136;24.706;2022-08-19T10:25:25;10.15;;;6.22;;
69878;SDS011;57161;43.136;24.706;2022-08-19T10:27:52;11.55;;;6.03;;
69878;SDS011;57161;43.136;24.706;2022-08-19T10:30:18;9.85;;;5.63;;
69878;SDS011;57161;43.136;24.706;2022-08-19T10:32:44;7.97;;;6.15;;
69878;SDS011;57161;43.136;24.706;2022-08-19T10:35:11;7.43;;;6.30;;
69878;SDS011;57161;43.136;24.706;2022-08-19T10:37:38;9.90;;;6.00;;
69878;SDS011;57161;43.136;24.706;2022-08-19T10:40:05;11.85;;;6.38;;
69878;SDS011;57161;43.136;24.706;2022-08-19T10:42:32;10.95;;;5.60;;
69878;SDS011;57161;43.136;24.706;2022-08-19T10:44:59;6.70;;;6.00;;
69878;SDS011;57161;43.136;24.706;2022-08-19T10:47:25;10.40;;;6.20;;
69878;SDS011;57161;43.136;24.706;2022-08-19T10:49:50;12.02;;;5.65;;
69878;SDS011;57161;43.136;24.706;2022-08-19T10:52:34;8.10;;;5.43;;
69878;SDS011;57161;43.136;24.706;2022-08-19T10:55:01;7.72;;;5.75;;
69878;SDS011;57161;43.136;24.706;2022-08-19T10:57:49;6.90;;;5.65;;
69878;SDS011;57161;43.136;24.706;2022-08-19T11:00:15;7.85;;;5.75;;
69878;SDS011;57161;43.136;24.706;2022-08-19T11:02:41;10.02;;;6.15;;
69878;SDS011;57161;43.136;24.706;2022-08-19T11:05:07;8.30;;;6.00;;
69878;SDS011;57161;43.136;24.706;2022-08-19T11:07:35;8.23;;;5.45;;
69878;SDS011;57161;43.136;24.706;2022-08-19T11:10:03;9.07;;;5.22;;
69878;SDS011;57161;43.136;24.706;2022-08-19T11:12:29;7.05;;;5.15;;
69878;SDS011;57161;43.136;24.706;2022-08-19T11:14:55;7.78;;;6.07;;
69878;SDS011;57161;43.136;24.706;2022-08-19T11:17:20;7.85;;;5.80;;
69878;SDS011;57161;43.136;24.706;2022-08-19T11:19:48;11.65;;;5.82;;
69878;SDS011;57161;43.136;24.706;2022-08-19T11:22:14;10.77;;;5.97;;
69878;SDS011;57161;43.136;24.706;2022-08-19T11:24:39;14.27;;;5.53;;
69878;SDS011;57161;43.136;24.706;2022-08-19T11:27:06;7.20;;;5.63;;
69878;SDS011;57161;43.136;24.706;2022-08-19T11:29:34;7.75;;;5.35;;
69878;SDS011;57161;43.136;24.706;2022-08-19T11:32:06;6.22;;;5.47;;
69878;SDS011;57161;43.136;24.706;2022-08-19T11:34:37;9.65;;;5.70;;
69878;SDS011;57161;43.136;24.706;2022-08-19T11:37:04;10.68;;;6.50;;
69878;SDS011;57161;43.136;24.706;2022-08-19T11:39:32;13.95;;;6.10;;
69878;SDS011;57161;43.136;24.706;2022-08-19T11:42:00;17.70;;;6.55;;
